Time;durP1;ratioP1;P1;durP2;ratioP2;P2;SDS_P1;SDS_P2;PMS_P1;PMS_P2;Temp;Humidity;BMP_temperature;BMP_pressure;BME280_temperature;BME280_humidity;BME280_pressure;Samples;Min_cycle;Max_cycle;Signal;HPM_P1;HPM_P2
2022/12/07 00:04:56;;;;;;;;;;;;;;;18.39;34.11;95545.09;10438144;28;2761;-49
2022/12/07 00:09:56;;;;;;;;;;;;;;;18.40;34.06;95539.56;10440278;28;2747;-54
2022/12/07 00:14:56;;;;;;;;;;;;;;;18.37;34.13;95541.94;10437253;28;2698;-53
2022/12/07 00:19:57;;;;;;;;;;;;;;;18.35;34.19;95533.56;10436457;28;3056;-52
2022/12/07 00:24:57;;;;;;;;;;;;;;;18.32;34.00;95534.09;10433206;28;2750;-53
2022/12/07 00:29:58;;;;;;;;;;;;;;;18.30;34.14;95526.47;10443962;28;2994;-52
2022/12/07 00:34:58;;;;;;;;;;;;;;;18.30;34.08;95528.34;10423195;28;2773;-53
2022/12/07 00:39:58;;;;;;;;;;;;;;;18.27;34.02;95528.84;10429162;28;2698;-51
2022/12/07 00:44:58;;;;;;;;;;;;;;;18.24;34.02;95522.28;10431863;28;2719;-54
2022/12/07 00:49:59;;;;;;;;;;;;;;;18.23;34.05;95527.81;10434419;28;2694;-53
2022/12/07 00:55:00;;;;;;;;;;;;;;;18.22;34.22;95532.25;10445327;28;3056;-54
2022/12/07 01:00:00;;;;;;;;;;;;;;;18.21;34.05;95532.53;10437786;28;2735;-55
2022/12/07 01:05:00;;;;;;;;;;;;;;;18.19;34.08;95526.75;10434016;28;3191;-55
2022/12/07 01:10:11;;;;;;;;;;;;;;;18.16;34.09;95525.44;10427604;28;2699;-54
2022/12/07 01:15:11;;;;;;;;;;;;;;;18.16;33.86;95525.44;10427298;28;2704;-56
2022/12/07 01:20:11;;;;;;;;;;;;;;;18.13;33.95;95525.19;10437249;28;2782;-54
2022/12/07 01:25:12;;;;;;;;;;;;;;;18.13;34.04;95528.59;10438691;28;2786;-53
2022/12/07 01:30:12;;;;;;;;;;;;;;;18.10;34.02;95530.94;10436043;28;2705;-52
2022/12/07 01:35:13;;;;;;;;;;;;;;;18.10;34.14;95534.34;10437975;28;2861;-54
2022/12/07 01:40:13;;;;;;;;;;;;;;;18.09;33.95;95529.38;10427767;28;2858;-55
2022/12/07 01:45:17;;;;;;;;;;;;;;;18.08;34.00;95533.03;10428096;28;2663;-52
2022/12/07 01:50:17;;;;;;;;;;;;;;;18.07;33.90;95521.00;10441483;28;2770;-51
2022/12/07 01:55:17;;;;;;;;;;;;;;;18.02;34.04;95516.53;10425546;28;2976;-53
2022/12/07 02:00:18;;;;;;;;;;;;;;;18.02;34.02;95518.34;10434501;28;2900;-56
2022/12/07 02:05:18;;;;;;;;;;;;;;;18.01;33.97;95517.56;10429898;28;2696;-54
2022/12/07 02:10:22;;;;;;;;;;;;;;;18.00;34.02;95523.06;10431715;28;2678;-52
2022/12/07 02:15:23;;;;;;;;;;;;;;;17.99;33.93;95514.41;10427515;28;2750;-54
2022/12/07 02:20:27;;;;;;;;;;;;;;;17.99;34.07;95513.66;10435224;28;2745;-55
2022/12/07 02:25:33;;;;;;;;;;;;;;;17.96;34.04;95501.06;10448169;28;2835;-54
2022/12/07 02:30:34;;;;;;;;;;;;;;;17.95;34.03;95502.13;10427821;28;2730;-54
2022/12/07 02:35:43;;;;;;;;;;;;;;;17.92;34.07;95505.25;10426864;28;2836;-54
2022/12/07 02:40:44;;;;;;;;;;;;;;;17.92;33.91;95503.41;10423722;28;2775;-55
2022/12/07 02:45:45;;;;;;;;;;;;;;;17.91;33.97;95504.44;10421079;28;2708;-53
2022/12/07 02:50:47;;;;;;;;;;;;;;;17.89;33.93;95502.09;10412660;28;2759;-54
2022/12/07 02:55:48;;;;;;;;;;;;;;;17.88;34.00;95497.91;10436880;28;2851;-56
2022/12/07 03:01:08;;;;;;;;;;;;;;;17.86;33.88;95497.41;10422758;28;2698;-55
2022/12/07 03:06:22;;;;;;;;;;;;;;;17.85;33.92;95498.44;10431832;28;2678;-54
2022/12/07 03:11:22;;;;;;;;;;;;;;;17.83;33.96;95495.28;10419221;28;2726;-54
2022/12/07 03:16:33;;;;;;;;;;;;;;;17.82;33.95;95496.34;10421162;28;2749;-54
2022/12/07 03:21:36;;;;;;;;;;;;;;;17.83;33.87;95500.53;10429212;28;2737;-55
2022/12/07 03:26:37;;;;;;;;;;;;;;;17.81;33.76;95493.97;10426993;28;2764;-53
2022/12/07 03:31:41;;;;;;;;;;;;;;;17.79;33.97;95496.84;10419692;28;2727;-56
2022/12/07 03:36:49;;;;;;;;;;;;;;;17.77;33.90;95493.72;10408326;28;2826;-55
2022/12/07 03:41:50;;;;;;;;;;;;;;;17.78;33.89;95490.03;10416190;28;3100;-55
2022/12/07 03:46:55;;;;;;;;;;;;;;;17.76;33.75;95488.72;10432385;28;2723;-53
2022/12/07 03:52:14;;;;;;;;;;;;;;;17.75;33.94;95492.38;10449740;28;2811;-55
2022/12/07 03:57:15;;;;;;;;;;;;;;;17.74;33.90;95482.97;10437960;28;2787;-53
2022/12/07 04:02:15;;;;;;;;;;;;;;;17.74;33.86;95486.34;10428788;28;2822;-56
2022/12/07 04:07:15;;;;;;;;;;;;;;;17.72;33.98;95472.72;10436542;28;2849;-53
2022/12/07 04:12:17;;;;;;;;;;;;;;;17.71;34.04;95479.03;10436191;28;2692;-55
2022/12/07 04:17:17;;;;;;;;;;;;;;;17.68;33.90;95484.78;10447759;28;2786;-54
2022/12/07 04:22:17;;;;;;;;;;;;;;;17.69;33.90;95477.72;10435410;28;2761;-54
2022/12/07 04:27:17;;;;;;;;;;;;;;;17.67;33.91;95490.28;10439440;28;2742;-52
2022/12/07 04:32:18;;;;;;;;;;;;;;;17.65;34.00;95481.91;10436306;28;2695;-52
2022/12/07 04:37:18;;;;;;;;;;;;;;;17.65;34.05;95482.69;10430791;28;2702;-54
2022/12/07 04:42:18;;;;;;;;;;;;;;;17.64;33.92;95486.34;10434490;28;2864;-52
2022/12/07 04:47:18;;;;;;;;;;;;;;;17.63;33.90;95479.53;10431606;28;2812;-56
2022/12/07 04:52:19;;;;;;;;;;;;;;;17.64;33.85;95480.34;10439947;28;2897;-56
2022/12/07 04:57:19;;;;;;;;;;;;;;;17.70;33.91;95485.31;10423972;28;2790;-55
2022/12/07 05:02:20;;;;;;;;;;;;;;;17.73;33.85;95476.13;10433179;28;2731;-55
2022/12/07 05:07:20;;;;;;;;;;;;;;;17.78;33.78;95476.91;10441332;28;2836;-56
2022/12/07 05:12:20;;;;;;;;;;;;;;;17.87;33.66;95480.59;10438761;28;3082;-55
2022/12/07 05:17:20;;;;;;;;;;;;;;;17.96;33.59;95486.09;10434715;28;2800;-55
2022/12/07 05:22:21;;;;;;;;;;;;;;;18.04;33.63;95474.28;10427523;28;2782;-57
2022/12/07 05:27:21;;;;;;;;;;;;;;;18.04;33.63;95482.94;10432660;28;2780;-54
2022/12/07 05:32:21;;;;;;;;;;;;;;;18.09;33.22;95471.69;10433263;28;2687;-55
2022/12/07 05:37:22;;;;;;;;;;;;;;;18.14;33.22;95487.41;10430727;28;2946;-55
2022/12/07 05:42:23;;;;;;;;;;;;;;;18.16;33.10;95480.03;10430209;28;2746;-54
2022/12/07 05:47:23;;;;;;;;;;;;;;;18.22;33.31;95479.00;10445137;28;2750;-55
2022/12/07 05:52:24;;;;;;;;;;;;;;;18.27;33.09;95479.78;10435302;28;3104;-55
2022/12/07 05:57:24;;;;;;;;;;;;;;;18.31;32.86;95482.66;10426728;28;2753;-57
2022/12/07 06:02:24;;;;;;;;;;;;;;;18.36;32.96;95480.03;10425488;28;2778;-55
2022/12/07 06:07:25;;;;;;;;;;;;;;;18.39;32.87;95487.38;10436080;28;3067;-56
2022/12/07 06:12:34;;;;;;;;;;;;;;;18.42;32.71;95484.22;10428223;28;2738;-54
2022/12/07 06:17:34;;;;;;;;;;;;;;;18.44;32.70;95484.78;10439218;28;2719;-56
2022/12/07 06:22:42;;;;;;;;;;;;;;;18.49;32.79;95490.78;10438683;28;2881;-56
2022/12/07 06:27:42;;;;;;;;;;;;;;;18.54;32.76;95497.88;10433486;28;2797;-53
2022/12/07 06:32:42;;;;;;;;;;;;;;;18.55;32.63;95496.81;10434892;28;2762;-56
2022/12/07 06:37:42;;;;;;;;;;;;;;;18.58;32.49;95502.34;10428523;28;1986;-56
2022/12/07 06:42:43;;;;;;;;;;;;;;;18.59;32.48;95498.63;10430974;28;2037;-55
2022/12/07 06:47:43;;;;;;;;;;;;;;;18.62;32.33;95499.94;10434678;28;2116;-54
2022/12/07 06:52:43;;;;;;;;;;;;;;;18.64;32.45;95501.25;10432528;28;2080;-56
2022/12/07 06:57:43;;;;;;;;;;;;;;;18.69;32.31;95509.09;10430633;28;2039;-55
2022/12/07 07:02:44;;;;;;;;;;;;;;;18.75;32.39;95512.53;10429644;28;1962;-56
2022/12/07 07:07:48;;;;;;;;;;;;;;;18.76;32.34;95508.03;10432526;28;1969;-55
2022/12/07 07:12:48;;;;;;;;;;;;;;;18.79;32.60;95510.94;10432509;28;2101;-55
2022/12/07 07:17:48;;;;;;;;;;;;;;;18.81;32.01;95515.91;10430783;28;1977;-53
2022/12/07 07:22:49;;;;;;;;;;;;;;;18.85;32.14;95516.94;10436299;28;1978;-54
2022/12/07 07:27:49;;;;;;;;;;;;;;;18.90;32.27;95511.69;10427058;28;1947;-53
2022/12/07 07:32:49;;;;;;;;;;;;;;;18.89;31.95;95516.16;10442096;28;1947;-51
2022/12/07 07:37:54;;;;;;;;;;;;;;;18.93;32.25;95522.44;10432800;28;2015;-54
2022/12/07 07:42:55;;;;;;;;;;;;;;;18.94;32.11;95515.34;10425472;28;2009;-52
2022/12/07 07:47:56;;;;;;;;;;;;;;;18.99;32.14;95516.09;10435545;28;2136;-54
2022/12/07 07:52:57;;;;;;;;;;;;;;;18.97;32.08;95533.97;10432376;28;1982;-52
2022/12/07 07:57:57;;;;;;;;;;;;;;;19.00;31.93;95528.19;10432027;28;2022;-55
2022/12/07 08:02:59;;;;;;;;;;;;;;;18.99;32.31;95531.88;10442656;28;2846;-55
2022/12/07 08:07:59;;;;;;;;;;;;;;;19.05;32.66;95528.16;10429683;28;2770;-54
2022/12/07 08:13:11;;;;;;;;;;;;;;;19.04;32.42;95525.81;10441959;28;2737;-52
2022/12/07 08:18:11;;;;;;;;;;;;;;;19.07;32.56;95520.00;10428270;28;2742;-54
2022/12/07 08:23:12;;;;;;;;;;;;;;;19.03;32.60;95538.16;10438945;28;2740;-53
2022/12/07 08:28:12;;;;;;;;;;;;;;;19.03;32.67;95540.00;10436925;28;2734;-51
2022/12/07 08:33:12;;;;;;;;;;;;;;;18.98;32.65;95532.91;10440142;28;2662;-51
2022/12/07 08:38:12;;;;;;;;;;;;;;;18.94;32.61;95533.75;10436553;28;2755;-53
2022/12/07 08:43:13;;;;;;;;;;;;;;;18.95;32.53;95532.66;10438639;28;2867;-53
2022/12/07 08:48:14;;;;;;;;;;;;;;;18.91;32.58;95532.44;10457397;28;2699;-53
2022/12/07 08:53:14;;;;;;;;;;;;;;;18.89;32.56;95536.38;10442244;28;2759;-53
2022/12/07 08:58:14;;;;;;;;;;;;;;;18.90;32.66;95540.59;10444619;28;2407;-54
2022/12/07 09:03:15;;;;;;;;;;;;;;;18.94;32.48;95534.50;10421132;28;2616;-54
2022/12/07 09:08:15;;;;;;;;;;;;;;;18.95;32.47;95537.91;10438900;28;2468;-57
2022/12/07 09:13:15;;;;;;;;;;;;;;;18.95;32.46;95537.91;10422590;28;2512;-54
2022/12/07 09:18:16;;;;;;;;;;;;;;;18.96;32.52;95527.13;10440532;28;2470;-55
2022/12/07 09:23:17;;;;;;;;;;;;;;;18.96;32.36;95534.25;10440456;28;2468;-53
2022/12/07 09:28:17;;;;;;;;;;;;;;;18.99;32.29;95534.50;10434819;28;2503;-55
2022/12/07 09:33:18;;;;;;;;;;;;;;;18.97;32.36;95536.59;10438792;28;2487;-55
2022/12/07 09:38:18;;;;;;;;;;;;;;;19.00;32.07;95540.53;10433097;28;2828;-54
2022/12/07 09:43:20;;;;;;;;;;;;;;;18.97;32.17;95541.06;10436874;28;2483;-53
2022/12/07 09:48:25;;;;;;;;;;;;;;;18.99;32.14;95531.88;10431616;28;2541;-53
2022/12/07 09:53:30;;;;;;;;;;;;;;;19.01;31.92;95527.13;10437979;28;2494;-55
2022/12/07 09:58:30;;;;;;;;;;;;;;;19.08;32.20;95522.34;10438419;28;2552;-54
2022/12/07 10:03:32;;;;;;;;;;;;;;;19.11;32.02;95513.16;10436810;28;2515;-55
2022/12/07 10:08:32;;;;;;;;;;;;;;;19.08;31.85;95505.84;10430524;28;2526;-55
2022/12/07 10:13:34;;;;;;;;;;;;;;;19.07;31.76;95510.28;10439062;28;2469;-56
2022/12/07 10:18:38;;;;;;;;;;;;;;;19.14;32.04;95505.53;10432412;28;2474;-54
2022/12/07 10:24:01;;;;;;;;;;;;;;;19.16;32.00;95508.69;10428379;28;2525;-55
2022/12/07 10:29:04;;;;;;;;;;;;;;;19.19;31.97;95508.13;10427249;28;2520;-56
2022/12/07 10:34:08;;;;;;;;;;;;;;;19.20;31.98;95508.94;10433475;28;2467;-55
2022/12/07 10:39:16;;;;;;;;;;;;;;;19.22;32.08;95504.97;10426444;28;2459;-54
2022/12/07 10:44:20;;;;;;;;;;;;;;;19.24;31.82;95497.63;10450137;28;2490;-56
2022/12/07 10:49:37;;;;;;;;;;;;;;;19.26;32.03;95495.50;10431677;28;2476;-55
2022/12/07 10:54:42;;;;;;;;;;;;;;;19.34;32.39;95481.03;10436538;28;2478;-56
2022/12/07 11:00:01;;;;;;;;;;;;;;;19.42;33.70;95475.19;10426993;28;2522;-55
2022/12/07 11:05:40;;;;;;;;;;;;;;;19.61;35.01;95472.72;10431618;28;2541;-52
2022/12/07 11:10:55;;;;;;;;;;;;;;;19.71;35.96;95459.47;10380763;28;2512;-56
2022/12/07 11:16:08;;;;;;;;;;;;;;;19.77;36.01;95459.19;10417785;28;2392;-52
2022/12/07 11:21:27;;;;;;;;;;;;;;;19.81;36.45;95454.94;10431328;28;2433;-51
2022/12/07 11:26:27;;;;;;;;;;;;;;;19.75;36.23;95457.88;10447870;28;2403;-54
2022/12/07 11:31:36;;;;;;;;;;;;;;;19.68;36.11;95447.66;10425651;28;2427;-53
2022/12/07 11:36:41;;;;;;;;;;;;;;;19.63;36.33;95446.91;10427794;28;2410;-48
2022/12/07 11:41:41;;;;;;;;;;;;;;;19.59;36.20;95443.28;10431429;28;2536;-55
2022/12/07 11:46:42;;;;;;;;;;;;;;;19.58;36.08;95447.75;10435348;28;2527;-55
2022/12/07 11:51:42;;;;;;;;;;;;;;;19.53;36.04;95434.66;10425681;28;2470;-52
2022/12/07 11:56:42;;;;;;;;;;;;;;;19.53;36.09;95420.72;10420668;28;2522;-52
2022/12/07 12:01:47;;;;;;;;;;;;;;;19.49;35.94;95425.75;10459867;28;2436;-55
2022/12/07 12:06:47;;;;;;;;;;;;;;;19.52;36.18;95421.75;10437604;28;2377;-50
2022/12/07 12:11:50;;;;;;;;;;;;;;;19.51;36.17;95409.69;10413882;28;2511;-52
2022/12/07 12:17:11;;;;;;;;;;;;;;;19.47;36.11;95402.34;10436325;28;2497;-55
2022/12/07 12:22:18;;;;;;;;;;;;;;;19.45;35.90;95399.19;10426571;28;2508;-54
2022/12/07 12:27:23;;;;;;;;;;;;;;;19.43;35.93;95403.19;10437799;28;2458;-53
2022/12/07 12:32:30;;;;;;;;;;;;;;;19.40;36.00;95396.63;10439949;28;2456;-50
2022/12/07 12:37:33;;;;;;;;;;;;;;;19.42;35.90;95397.13;10435109;28;2534;-55
2022/12/07 12:42:43;;;;;;;;;;;;;;;19.41;35.86;95392.91;10438827;28;2582;-54
2022/12/07 12:47:57;;;;;;;;;;;;;;;19.41;35.66;95398.19;10439147;28;2529;-49
2022/12/07 12:52:57;;;;;;;;;;;;;;;19.42;35.76;95396.34;10443621;28;2470;-54
2022/12/07 12:58:24;;;;;;;;;;;;;;;19.42;35.61;95391.88;10436813;28;2558;-51
2022/12/07 13:03:28;;;;;;;;;;;;;;;19.43;35.49;95393.44;10443609;28;2371;-53
2022/12/07 13:08:28;;;;;;;;;;;;;;;19.42;35.51;95391.09;10443886;28;2477;-53
2022/12/07 13:13:29;;;;;;;;;;;;;;;19.43;35.46;95388.16;10442148;28;2463;-53
2022/12/07 13:18:29;;;;;;;;;;;;;;;19.47;35.63;95383.16;10445752;28;2442;-54
2022/12/07 13:23:36;;;;;;;;;;;;;;;19.49;35.92;95378.41;10442301;28;2537;-53
2022/12/07 13:28:40;;;;;;;;;;;;;;;19.53;36.06;95373.38;10434659;28;2455;-55
2022/12/07 13:33:46;;;;;;;;;;;;;;;19.51;35.97;95375.50;10434754;28;2427;-53
2022/12/07 13:38:51;;;;;;;;;;;;;;;19.51;35.82;95378.13;10435589;28;2483;-53
2022/12/07 13:43:53;;;;;;;;;;;;;;;19.49;35.76;95376.56;10438364;28;2417;-52
2022/12/07 13:48:55;;;;;;;;;;;;;;;19.48;35.54;95367.13;10437899;28;2826;-53
2022/12/07 13:54:08;;;;;;;;;;;;;;;19.48;35.62;95367.13;10429529;28;2468;-51
2022/12/07 13:59:16;;;;;;;;;;;;;;;19.49;35.78;95365.28;10443634;28;2509;-50
2022/12/07 14:04:27;;;;;;;;;;;;;;;19.47;35.57;95360.28;10450070;28;2467;-54
2022/12/07 14:09:28;;;;;;;;;;;;;;;19.48;35.65;95353.19;10434730;28;2401;-52
2022/12/07 14:14:29;;;;;;;;;;;;;;;19.44;35.64;95355.59;10435966;28;2433;-53
2022/12/07 14:19:46;;;;;;;;;;;;;;;19.47;35.50;95355.00;10448485;28;2380;-54
2022/12/07 14:24:46;;;;;;;;;;;;;;;19.45;35.64;95359.75;10432070;28;2405;-53
2022/12/07 14:29:47;;;;;;;;;;;;;;;19.45;35.51;95357.13;10436746;28;2420;-54
2022/12/07 14:34:57;;;;;;;;;;;;;;;19.45;35.51;95351.88;10436126;28;2675;-53
2022/12/07 14:40:09;;;;;;;;;;;;;;;19.44;35.38;95352.97;10434508;28;2400;-55
2022/12/07 14:45:13;;;;;;;;;;;;;;;19.43;35.14;95354.00;10427015;28;2494;-54
2022/12/07 14:50:20;;;;;;;;;;;;;;;19.47;35.38;95355.00;10431340;28;2433;-52
2022/12/07 14:55:25;;;;;;;;;;;;;;;19.44;35.33;95347.69;10439818;28;2628;-54
2022/12/07 15:00:25;;;;;;;;;;;;;;;19.44;35.41;95350.31;10429533;28;2452;-53
2022/12/07 15:05:26;;;;;;;;;;;;;;;19.44;35.19;95342.44;10428093;28;2452;-54
2022/12/07 15:10:31;;;;;;;;;;;;;;;19.44;35.28;95352.16;10445702;28;2452;-54
2022/12/07 15:15:31;;;;;;;;;;;;;;;19.48;35.83;95345.28;10424366;28;2493;-54
2022/12/07 15:20:31;;;;;;;;;;;;;;;19.51;35.53;95349.22;10433978;28;2488;-53
2022/12/07 15:25:45;;;;;;;;;;;;;;;19.50;35.79;95345.81;10436879;28;2687;-54
2022/12/07 15:30:46;;;;;;;;;;;;;;;19.51;35.68;95349.22;10424519;28;2434;-53
2022/12/07 15:35:46;;;;;;;;;;;;;;;19.49;35.83;95347.63;10434967;28;2385;-51
2022/12/07 15:40:46;;;;;;;;;;;;;;;19.49;35.62;95352.13;10425896;28;2414;-50
2022/12/07 15:45:49;;;;;;;;;;;;;;;19.51;35.52;95352.63;10433083;28;2502;-51
2022/12/07 15:50:49;;;;;;;;;;;;;;;19.48;35.69;95347.91;10442204;28;2409;-53
2022/12/07 15:55:55;;;;;;;;;;;;;;;19.49;35.49;95352.91;10445120;28;2452;-53
2022/12/07 16:00:56;;;;;;;;;;;;;;;19.51;35.49;95346.59;10442069;28;2773;-54
2022/12/07 16:05:56;;;;;;;;;;;;;;;19.49;35.62;95342.38;10439496;28;2545;-52
2022/12/07 16:10:57;;;;;;;;;;;;;;;19.56;35.47;95341.31;10436359;28;2435;-50
2022/12/07 16:15:57;;;;;;;;;;;;;;;19.53;35.63;95349.72;10437892;28;2538;-51
2022/12/07 16:20:57;;;;;;;;;;;;;;;19.56;35.88;95343.94;10444305;28;2424;-55
2022/12/07 16:26:11;;;;;;;;;;;;;;;19.53;35.95;95340.00;10439474;28;2436;-50
2022/12/07 16:31:12;;;;;;;;;;;;;;;19.53;35.59;95329.50;10433720;28;2441;-55
2022/12/07 16:36:14;;;;;;;;;;;;;;;19.53;35.25;95339.22;10440394;28;2479;-53
2022/12/07 16:41:14;;;;;;;;;;;;;;;19.52;35.37;95338.41;10444612;28;2410;-53
2022/12/07 16:46:15;;;;;;;;;;;;;;;19.52;35.63;95338.41;10439063;28;2484;-53
2022/12/07 16:51:15;;;;;;;;;;;;;;;19.51;35.62;95328.97;10441703;28;1945;-52
2022/12/07 16:56:16;;;;;;;;;;;;;;;19.52;35.52;95329.75;10435525;28;1953;-52
2022/12/07 17:01:17;;;;;;;;;;;;;;;19.53;36.11;95321.59;10441982;28;1970;-51
2022/12/07 17:06:22;;;;;;;;;;;;;;;19.59;37.93;95324.97;10443205;28;2068;-51
2022/12/07 17:11:32;;;;;;;;;;;;;;;19.61;38.52;95328.09;10444789;28;2046;-52
2022/12/07 17:16:32;;;;;;;;;;;;;;;19.62;37.00;95327.06;10434024;28;2057;-53
2022/12/07 17:21:32;;;;;;;;;;;;;;;19.64;38.16;95324.94;10442681;28;1950;-52
2022/12/07 17:26:33;;;;;;;;;;;;;;;19.67;38.35;95314.63;10441326;28;1965;-54
2022/12/07 17:31:33;;;;;;;;;;;;;;;19.68;38.75;95320.69;10438047;28;2095;-51
2022/12/07 17:36:33;;;;;;;;;;;;;;;19.67;38.13;95317.25;10427632;28;1973;-52
2022/12/07 17:46:54;;;;;;;;;;;;;;;19.62;38.13;95313.91;10429261;28;1974;-50
2022/12/07 17:57:13;;;;;;;;;;;;;;;19.58;38.14;95312.91;10436654;28;2095;-50
2022/12/07 18:02:13;;;;;;;;;;;;;;;19.56;37.22;95312.38;10438346;28;1951;-50
2022/12/07 18:07:14;;;;;;;;;;;;;;;19.56;37.87;95307.13;10430714;28;2029;-53
2022/12/07 18:12:14;;;;;;;;;;;;;;;19.59;38.69;95306.56;10422661;28;2078;-51
2022/12/07 18:17:14;;;;;;;;;;;;;;;19.57;38.86;95311.31;10429473;28;1983;-52
2022/12/07 18:22:15;;;;;;;;;;;;;;;19.57;38.56;95312.09;10429597;28;2021;-54
2022/12/07 18:27:19;;;;;;;;;;;;;;;19.54;38.37;95315.28;10431136;28;1913;-49
2022/12/07 18:32:20;;;;;;;;;;;;;;;19.55;38.53;95318.69;10431960;28;1984;-52
2022/12/07 18:37:26;;;;;;;;;;;;;;;19.56;38.27;95317.66;10426570;28;2195;-53
2022/12/07 18:42:26;;;;;;;;;;;;;;;19.53;38.38;95318.19;10427141;28;1981;-53
2022/12/07 18:47:27;;;;;;;;;;;;;;;19.55;38.37;95305.53;10434450;28;1907;-51
2022/12/07 18:52:27;;;;;;;;;;;;;;;19.49;38.40;95316.09;10434135;28;2048;-53
2022/12/07 18:57:28;;;;;;;;;;;;;;;19.49;38.34;95310.06;10433837;28;1995;-51
2022/12/07 19:02:28;;;;;;;;;;;;;;;19.47;38.12;95314.81;10438875;28;1943;-51
2022/12/07 19:07:28;;;;;;;;;;;;;;;19.47;38.38;95310.31;10439411;28;1969;-51
2022/12/07 19:12:29;;;;;;;;;;;;;;;19.49;38.08;95302.94;10443021;28;2034;-52
2022/12/07 19:17:29;;;;;;;;;;;;;;;19.48;38.09;95309.28;10438288;28;1926;-53
2022/12/07 19:22:29;;;;;;;;;;;;;;;19.49;38.15;95302.94;10436893;28;1935;-53
2022/12/07 19:27:31;;;;;;;;;;;;;;;19.48;37.97;95300.59;10436438;28;1935;-52
2022/12/07 19:32:31;;;;;;;;;;;;;;;19.49;37.84;95291.69;10442845;28;2045;-54
2022/12/07 19:37:31;;;;;;;;;;;;;;;19.47;37.90;95291.94;10432981;28;1973;-53
2022/12/07 19:42:34;;;;;;;;;;;;;;;19.52;38.17;95290.31;10445004;28;1962;-51
2022/12/07 19:47:34;;;;;;;;;;;;;;;19.54;38.51;95288.22;10442703;28;2036;-53
2022/12/07 19:52:35;;;;;;;;;;;;;;;19.56;38.34;95284.22;10436043;28;2034;-53
2022/12/07 19:57:35;;;;;;;;;;;;;;;19.57;38.40;95279.75;10437041;28;1973;-52
2022/12/07 20:02:36;;;;;;;;;;;;;;;19.56;38.76;95276.34;10415480;28;1994;-52
2022/12/07 20:07:37;;;;;;;;;;;;;;;19.59;38.24;95275.00;10437964;28;1906;-53
2022/12/07 20:17:57;;;;;;;;;;;;;;;19.58;38.71;95262.94;10437548;28;1959;-52
2022/12/07 20:22:57;;;;;;;;;;;;;;;19.57;38.54;95251.63;10433838;28;1997;-50
2022/12/07 20:27:57;;;;;;;;;;;;;;;19.57;37.97;95256.91;10433861;28;2074;-52
2022/12/07 20:32:57;;;;;;;;;;;;;;;19.53;38.25;95249.84;10435756;28;1979;-52
2022/12/07 20:37:58;;;;;;;;;;;;;;;19.52;37.80;95251.66;10436925;28;2017;-52
2022/12/07 20:42:58;;;;;;;;;;;;;;;19.53;37.56;95253.25;10441623;28;1978;-52
2022/12/07 20:47:58;;;;;;;;;;;;;;;19.52;37.78;95253.50;10435135;28;2008;-53
2022/12/07 20:52:59;;;;;;;;;;;;;;;19.49;37.64;95253.00;10441001;28;1973;-54
2022/12/07 20:57:59;;;;;;;;;;;;;;;19.47;37.76;95249.13;10431297;28;1918;-52
2022/12/07 21:02:59;;;;;;;;;;;;;;;19.42;37.97;95252.56;10438313;28;1958;-52
2022/12/07 21:07:59;;;;;;;;;;;;;;;19.40;37.75;95244.19;10427320;28;1962;-52
2022/12/07 21:13:00;;;;;;;;;;;;;;;19.38;37.45;95248.13;10435083;28;2085;-53
2022/12/07 21:18:00;;;;;;;;;;;;;;;19.34;37.40;95247.13;10433213;28;2061;-50
2022/12/07 21:23:00;;;;;;;;;;;;;;;19.35;37.38;95254.72;10433345;28;1979;-49
2022/12/07 21:28:00;;;;;;;;;;;;;;;19.30;37.29;95244.25;10428575;28;2110;-52
2022/12/07 21:33:01;;;;;;;;;;;;;;;19.26;37.30;95245.06;10416468;28;2131;-48
2022/12/07 21:38:01;;;;;;;;;;;;;;;19.26;37.32;95231.94;10428920;28;1950;-51
2022/12/07 21:43:03;;;;;;;;;;;;;;;19.22;37.24;95236.19;10430321;28;2013;-53
2022/12/07 21:48:04;;;;;;;;;;;;;;;19.17;37.42;95221.22;10442150;28;1958;-52
2022/12/07 21:53:04;;;;;;;;;;;;;;;19.15;37.49;95223.34;10442027;28;2139;-51
2022/12/07 21:58:05;;;;;;;;;;;;;;;19.14;37.32;95221.81;10444037;28;1829;-52
2022/12/07 22:03:05;;;;;;;;;;;;;;;19.16;37.67;95224.16;10442786;28;1977;-50
2022/12/07 22:08:05;;;;;;;;;;;;;;;19.12;37.52;95215.25;10433011;28;2142;-53
2022/12/07 22:13:05;;;;;;;;;;;;;;;19.07;37.58;95229.22;10434615;28;2167;-53
2022/12/07 22:18:06;;;;;;;;;;;;;;;19.03;37.46;95219.53;10432271;28;2060;-54
2022/12/07 22:23:11;;;;;;;;;;;;;;;19.00;37.36;95207.72;10435024;28;1958;-50
2022/12/07 22:28:11;;;;;;;;;;;;;;;18.98;37.40;95209.84;10437972;28;1989;-51
2022/12/07 22:33:12;;;;;;;;;;;;;;;18.97;37.15;95215.38;10438554;28;1918;-53
2022/12/07 22:38:12;;;;;;;;;;;;;;;18.90;37.25;95204.41;10438104;28;1990;-53
2022/12/07 22:43:12;;;;;;;;;;;;;;;18.88;37.13;95211.75;10438201;28;2008;-54
2022/12/07 22:48:13;;;;;;;;;;;;;;;18.86;37.09;95204.16;10437655;28;1966;-52
2022/12/07 22:53:13;;;;;;;;;;;;;;;18.85;37.04;95197.38;10438506;28;2007;-53
2022/12/07 22:58:13;;;;;;;;;;;;;;;18.84;36.93;95195.78;10423684;28;1946;-52
2022/12/07 23:03:13;;;;;;;;;;;;;;;18.80;36.87;95184.25;10428246;28;1926;-52
2022/12/07 23:08:14;;;;;;;;;;;;;;;18.81;36.91;95185.84;10425353;28;1954;-52
2022/12/07 23:13:30;;;;;;;;;;;;;;;18.83;36.78;95182.94;10436044;28;1979;-52
2022/12/07 23:18:30;;;;;;;;;;;;;;;18.79;36.83;95185.34;10429036;28;1962;-52
2022/12/07 23:23:31;;;;;;;;;;;;;;;18.75;36.90;95179.06;10430848;28;2013;-53
2022/12/07 23:28:31;;;;;;;;;;;;;;;18.74;36.84;95174.88;10428373;28;1989;-53
2022/12/07 23:33:32;;;;;;;;;;;;;;;18.71;36.73;95172.00;10429527;28;2035;-55
2022/12/07 23:38:32;;;;;;;;;;;;;;;18.67;36.53;95164.66;10432983;28;1970;-53
2022/12/07 23:43:33;;;;;;;;;;;;;;;18.71;36.62;95153.63;10428721;28;2009;-54
2022/12/07 23:48:34;;;;;;;;;;;;;;;18.68;36.64;95147.09;10430006;28;2092;-51
2022/12/07 23:53:35;;;;;;;;;;;;;;;18.61;36.66;95143.97;10431262;28;1935;-52
2022/12/07 23:58:35;;;;;;;;;;;;;;;18.65;36.58;95137.13;10442037;28;1899;-54
